Time;durP1;ratioP1;P1;durP2;ratioP2;P2;SDS_P1;SDS_P2;PMS_P1;PMS_P2;Temp;Humidity;BMP_temperature;BMP_pressure;BME280_temperature;BME280_humidity;BME280_pressure;Samples;Min_cycle;Max_cycle;Signal;HPM_P1;HPM_P2
2023/01/21 00:00:13;;;;;;;39.40;19.33;;;;;;;-5.14;100.00;99178.00;4209653;28;20240;-72
2023/01/21 00:02:13;;;;;;;42.28;19.75;;;;;;;-5.20;100.00;99187.16;4218712;28;20467;-72
2023/01/21 00:04:14;;;;;;;39.03;17.88;;;;;;;-5.28;100.00;99193.81;4217358;28;20039;-72
2023/01/21 00:06:14;;;;;;;33.97;16.45;;;;;;;-5.38;100.00;99199.94;4223402;27;20117;-72
2023/01/21 00:08:15;;;;;;;35.70;18.00;;;;;;;-5.45;100.00;99190.44;4218706;28;20486;-72
2023/01/21 00:10:15;;;;;;;36.90;16.75;;;;;;;-5.47;100.00;99204.16;4218237;28;20107;-72
2023/01/21 00:12:16;;;;;;;35.97;16.25;;;;;;;-5.46;100.00;99200.41;4219198;28;20057;-72
2023/01/21 00:14:16;;;;;;;37.80;17.33;;;;;;;-5.49;100.00;99200.09;4216456;28;20036;-72
2023/01/21 00:16:16;;;;;;;34.50;16.75;;;;;;;-5.45;100.00;99215.53;4210980;28;20029;-72
2023/01/21 00:18:17;;;;;;;30.42;15.55;;;;;;;-5.45;100.00;99210.13;4202409;28;20032;-72
2023/01/21 00:20:17;;;;;;;31.08;16.42;;;;;;;-5.45;100.00;99204.75;4202916;28;20089;-72
2023/01/21 00:22:17;;;;;;;35.00;17.77;;;;;;;-5.42;100.00;99208.81;4208302;28;20042;-72
2023/01/21 00:24:18;;;;;;;42.58;19.27;;;;;;;-5.37;100.00;99209.66;4216979;28;20042;-72
2023/01/21 00:26:18;;;;;;;42.50;19.45;;;;;;;-5.29;100.00;99210.28;4207337;28;20439;-72
2023/01/21 00:28:18;;;;;;;36.63;17.80;;;;;;;-5.25;100.00;99214.88;4216868;28;20059;-72
2023/01/21 00:30:19;;;;;;;43.83;19.55;;;;;;;-5.20;100.00;99209.53;4202981;28;20150;-72
2023/01/21 00:32:19;;;;;;;40.33;18.73;;;;;;;-5.13;100.00;99210.16;4215403;28;21294;-72
2023/01/21 00:34:19;;;;;;;39.15;19.13;;;;;;;-5.10;100.00;99198.00;4204870;28;20109;-72
2023/01/21 00:36:21;;;;;;;41.58;19.17;;;;;;;-5.08;100.00;99206.66;4210429;28;20051;-72
2023/01/21 00:38:21;;;;;;;42.45;20.10;;;;;;;-5.02;100.00;99199.41;4217705;28;20075;-72
2023/01/21 00:40:21;;;;;;;37.60;17.95;;;;;;;-5.00;100.00;99210.75;4218399;28;20851;-72
2023/01/21 00:42:22;;;;;;;42.35;19.73;;;;;;;-4.96;100.00;99203.78;4216934;28;20210;-72
2023/01/21 00:44:22;;;;;;;39.50;18.77;;;;;;;-4.95;100.00;99208.94;4218402;28;20038;-72
2023/01/21 00:46:22;;;;;;;41.92;18.58;;;;;;;-4.93;100.00;99214.06;4212631;28;20101;-72
2023/01/21 00:48:23;;;;;;;39.88;19.88;;;;;;;-4.91;100.00;99215.41;4202714;28;20036;-72
2023/01/21 00:50:23;;;;;;;44.35;18.92;;;;;;;-4.86;100.00;99223.56;4207473;28;20044;-72
2023/01/21 00:52:24;;;;;;;42.05;19.80;;;;;;;-4.85;100.00;99222.47;4209937;28;20040;-72
2023/01/21 00:54:24;;;;;;;39.85;18.33;;;;;;;-4.82;100.00;99237.34;4202098;28;20067;-72
2023/01/21 00:56:25;;;;;;;36.88;18.42;;;;;;;-4.80;100.00;99229.78;4215449;28;20058;-72
2023/01/21 00:58:25;;;;;;;39.65;19.48;;;;;;;-4.77;100.00;99231.19;4212710;28;21183;-72
2023/01/21 01:00:25;;;;;;;36.30;18.20;;;;;;;-4.76;100.00;99246.31;4212224;28;20044;-72
2023/01/21 01:02:26;;;;;;;39.95;18.70;;;;;;;-4.74;100.00;99238.75;4202114;28;20132;-72
2023/01/21 01:04:26;;;;;;;41.35;20.65;;;;;;;-4.70;100.00;99239.88;4202404;28;20049;-72
2023/01/21 01:06:26;;;;;;;37.83;18.73;;;;;;;-4.65;100.00;99245.28;4218128;27;20065;-72
2023/01/21 01:08:27;;;;;;;42.28;19.13;;;;;;;-4.62;100.00;99251.00;4221809;27;20044;-72
2023/01/21 01:10:27;;;;;;;43.35;19.10;;;;;;;-4.63;100.00;99243.16;4221382;27;20051;-72
2023/01/21 01:12:28;;;;;;;43.40;19.45;;;;;;;-4.57;100.00;99252.91;4216473;28;20053;-72
2023/01/21 01:14:28;;;;;;;36.88;18.98;;;;;;;-4.56;100.00;99252.63;4205607;28;20058;-72
2023/01/21 01:16:29;;;;;;;39.30;18.98;;;;;;;-4.56;100.00;99252.63;4207820;28;20568;-72
2023/01/21 01:18:32;;;;;;;39.05;18.77;;;;;;;-4.55;100.00;99258.84;4222061;27;20043;-72
2023/01/21 01:20:32;;;;;;;44.92;19.77;;;;;;;-4.54;100.00;99260.50;4220724;28;20050;-72
2023/01/21 01:22:33;;;;;;;38.40;19.77;;;;;;;-4.52;100.00;99263.75;4220878;28;20558;-72
2023/01/21 01:24:33;;;;;;;40.75;18.10;;;;;;;-4.52;100.00;99267.25;4213281;28;20080;-72
2023/01/21 01:26:36;;;;;;;35.05;18.27;;;;;;;-4.51;100.00;99259.97;4207493;28;20119;-72
2023/01/21 01:28:37;;;;;;;36.83;18.95;;;;;;;-4.47;100.00;99269.16;4211579;28;20151;-72
2023/01/21 01:30:37;;;;;;;39.60;19.00;;;;;;;-4.44;100.00;99273.25;4206250;28;20040;-72
2023/01/21 01:32:38;;;;;;;42.42;18.95;;;;;;;-4.37;100.00;99271.97;4216291;28;20135;-72
2023/01/21 01:34:38;;;;;;;32.65;17.58;;;;;;;-4.38;100.00;99273.03;4220664;28;20043;-72
2023/01/21 01:36:38;;;;;;;40.92;17.95;;;;;;;-4.35;100.00;99275.19;4220254;28;20047;-72
2023/01/21 01:38:40;;;;;;;40.00;19.40;;;;;;;-4.34;100.00;99271.41;4220983;28;20088;-72
2023/01/21 01:40:41;;;;;;;38.88;19.15;;;;;;;-4.36;100.00;99275.47;4211073;28;20546;-72
2023/01/21 01:42:41;;;;;;;41.78;18.88;;;;;;;-4.32;100.00;99268.44;4204492;28;20138;-72
2023/01/21 01:44:54;;;;;;;41.58;18.88;;;;;;;-4.32;100.00;99279.25;4212106;27;20163;-72
2023/01/21 01:46:57;;;;;;;34.22;17.83;;;;;;;-4.32;100.00;99271.16;4220923;28;20047;-72
2023/01/21 01:49:15;;;;;;;40.33;18.23;;;;;;;-4.30;100.00;99280.66;4214469;27;20150;-72
2023/01/21 01:51:21;;;;;;;33.38;16.92;;;;;;;-4.26;100.00;99280.94;4205758;28;20052;-72
2023/01/21 01:53:23;;;;;;;38.20;20.00;;;;;;;-4.27;100.00;99288.22;4204812;28;20235;-72
2023/01/21 01:55:24;;;;;;;37.58;18.20;;;;;;;-4.25;100.00;99288.75;4217540;28;20096;-72
2023/01/21 01:57:31;;;;;;;35.55;17.08;;;;;;;-4.20;100.00;99298.00;4220352;27;20122;-72
2023/01/21 01:59:32;;;;;;;40.40;18.48;;;;;;;-4.21;100.00;99291.78;4205840;28;20036;-72
2023/01/21 02:01:32;;;;;;;36.35;17.02;;;;;;;-4.20;100.00;99296.09;4204728;28;20132;-72
2023/01/21 02:03:49;;;;;;;40.10;18.55;;;;;;;-4.18;100.00;99293.94;4211049;28;20503;-72
2023/01/21 02:05:50;;;;;;;38.67;18.00;;;;;;;-4.15;100.00;99288.00;4204043;28;20614;-72
2023/01/21 02:07:51;;;;;;;38.03;18.98;;;;;;;-4.12;100.00;99292.09;4205199;28;20467;-72
2023/01/21 02:09:52;;;;;;;40.50;18.83;;;;;;;-4.15;100.00;99296.09;4204844;28;20044;-72
2023/01/21 02:11:52;;;;;;;38.03;19.38;;;;;;;-4.14;100.00;99291.50;4204987;28;20081;-72
2023/01/21 02:13:56;;;;;;;42.40;20.85;;;;;;;-4.15;100.00;99296.09;4213424;28;20401;-72
2023/01/21 02:16:12;;;;;;;37.22;18.17;;;;;;;-4.16;100.00;99288.28;4211338;28;20162;-72
2023/01/21 02:18:31;;;;;;;44.50;20.83;;;;;;;-4.16;100.00;99289.09;4203883;28;20533;-72
2023/01/21 02:21:10;;;;;;;43.70;20.55;;;;;;;-4.17;100.00;99303.66;4204454;28;20113;-72
2023/01/21 02:23:44;;;;;;;40.05;19.63;;;;;;;-4.17;100.00;99297.47;4161888;28;20048;-72
2023/01/21 02:26:19;;;;;;;36.75;18.40;;;;;;;-4.16;100.00;99302.59;4204042;28;20060;-72
2023/01/21 02:28:38;;;;;;;41.47;19.15;;;;;;;-4.16;100.00;99294.47;4210822;27;20044;-72
2023/01/21 02:31:24;;;;;;;39.70;17.50;;;;;;;-4.16;100.00;99299.06;4204028;28;20062;-72
2023/01/21 02:33:54;;;;;;;36.65;18.83;;;;;;;-4.16;100.00;99296.38;4211961;28;20403;-72
2023/01/21 02:36:09;;;;;;;36.15;18.15;;;;;;;-4.14;100.00;99294.22;4219584;28;20418;-72
2023/01/21 02:38:25;;;;;;;34.10;17.60;;;;;;;-4.13;100.00;99293.97;4217696;28;20088;-72
2023/01/21 02:40:44;;;;;;;38.78;19.20;;;;;;;-4.11;100.00;99293.72;4220470;28;20237;-72
2023/01/21 02:42:47;;;;;;;35.38;19.17;;;;;;;-4.11;100.00;99293.72;4219011;27;20228;-72
2023/01/21 02:45:25;;;;;;;40.55;17.73;;;;;;;-4.07;100.00;99302.91;4215062;28;20047;-72
2023/01/21 02:47:28;;;;;;;40.50;17.95;;;;;;;-4.06;100.00;99302.63;4209938;28;20061;-72
2023/01/21 02:49:41;;;;;;;41.90;17.92;;;;;;;-4.05;100.00;99301.59;4219685;28;20473;-72
2023/01/21 02:51:45;;;;;;;45.67;19.88;;;;;;;-4.02;100.00;99294.84;4218963;28;20380;-72
2023/01/21 02:53:46;;;;;;;40.95;19.50;;;;;;;-4.02;100.00;99292.13;4202524;28;20040;-72
2023/01/21 02:55:46;;;;;;;40.95;19.75;;;;;;;-4.02;100.00;99294.84;4204340;28;20049;-72
2023/01/21 02:57:52;;;;;;;43.60;19.25;;;;;;;-4.01;100.00;99299.97;4204503;28;20048;-72
2023/01/21 02:59:55;;;;;;;32.33;16.15;;;;;;;-3.97;100.00;99301.09;4203678;28;20429;-72
2023/01/21 03:02:07;;;;;;;40.35;17.88;;;;;;;-4.00;100.00;99301.59;4205398;28;20048;-72
2023/01/21 03:04:24;;;;;;;41.05;17.58;;;;;;;-3.97;100.00;99303.78;4218338;28;20437;-72
2023/01/21 03:06:48;;;;;;;38.83;18.70;;;;;;;-3.97;100.00;99311.91;4208344;28;20094;-72
2023/01/21 03:08:54;;;;;;;40.63;18.17;;;;;;;-3.97;100.00;99305.69;4203739;28;20052;-72
2023/01/21 03:11:17;;;;;;;40.63;18.60;;;;;;;-3.97;100.00;99313.81;4217625;28;20051;-72
2023/01/21 03:18:17;;;;;;;40.63;18.10;;;;;;;-3.87;100.00;99316.53;4214750;28;20050;-72
2023/01/21 03:20:23;;;;;;;40.90;18.30;;;;;;;-3.90;100.00;99308.94;4203598;28;20096;-72
2023/01/21 03:22:28;;;;;;;36.40;17.00;;;;;;;-3.93;100.00;99314.88;4216283;28;20042;-72
2023/01/21 03:24:30;;;;;;;42.35;19.65;;;;;;;-3.94;100.00;99320.56;4217930;28;20047;-72
2023/01/21 03:26:35;;;;;;;40.47;17.95;;;;;;;-3.97;100.00;99320.00;4218770;27;20372;-72
2023/01/21 03:28:42;;;;;;;41.70;17.75;;;;;;;-3.96;100.00;99321.63;4216749;28;20126;-72
2023/01/21 03:30:46;;;;;;;40.88;18.25;;;;;;;-3.94;100.00;99320.56;4219000;27;20162;-72
2023/01/21 03:32:49;;;;;;;38.22;19.15;;;;;;;-3.91;100.00;99325.44;4211100;28;20089;-72
2023/01/21 03:34:51;;;;;;;;;;;;;;;-3.88;100.00;99320.34;4219297;28;20728;-72
2023/01/21 03:36:57;;;;;;;40.30;17.35;;;;;;;-3.85;100.00;99325.19;4220121;27;20007;-72
2023/01/21 03:39:02;;;;;;;39.47;17.73;;;;;;;-3.86;100.00;99323.56;4215334;28;20040;-72
2023/01/21 03:41:26;;;;;;;38.22;17.42;;;;;;;-3.78;100.00;99322.25;4208371;28;20132;-72
2023/01/21 03:43:27;;;;;;;41.30;19.08;;;;;;;-3.82;100.00;99313.84;4205147;28;20036;-72
2023/01/21 03:45:53;;;;;;;42.55;19.48;;;;;;;-3.77;100.00;99315.78;4219709;28;20131;-72
2023/01/21 03:47:59;;;;;;;43.17;18.85;;;;;;;-3.74;100.00;99326.06;4203998;28;20055;-72
2023/01/21 03:50:06;;;;;;;39.88;18.33;;;;;;;-3.70;100.00;99332.56;4203510;28;20052;-72
2023/01/21 03:52:09;;;;;;;42.53;19.50;;;;;;;-3.63;100.00;99335.03;4212241;28;20043;-72
2023/01/21 03:54:09;;;;;;;41.38;17.15;;;;;;;-3.61;100.00;99333.69;4201434;28;20515;-72
2023/01/21 03:56:10;;;;;;;34.25;16.75;;;;;;;-3.61;100.00;99336.41;4209175;28;20059;-72
2023/01/21 03:58:10;;;;;;;42.42;20.00;;;;;;;-3.62;100.00;99339.38;4217066;28;20055;-72
2023/01/21 04:00:12;;;;;;;37.17;17.38;;;;;;;-3.61;100.00;99331.00;4219064;27;20032;-72
2023/01/21 04:02:12;;;;;;;36.53;17.80;;;;;;;-3.58;100.00;99335.03;4217794;28;20035;-72
2023/01/21 04:04:12;;;;;;;38.90;16.92;;;;;;;-3.53;100.00;99332.38;4217987;28;20288;-72
2023/01/21 04:06:18;;;;;;;38.40;17.17;;;;;;;-3.52;100.00;99336.69;4218957;28;20057;-72
2023/01/21 04:08:19;;;;;;;39.88;17.60;;;;;;;-3.51;100.00;99335.63;4219013;28;20455;-72
2023/01/21 04:10:19;;;;;;;40.15;18.20;;;;;;;-3.54;100.00;99342.38;4214843;28;20273;-72
2023/01/21 04:12:19;;;;;;;41.38;18.25;;;;;;;-3.51;100.00;99344.53;4202864;28;20137;-72
2023/01/21 04:14:19;;;;;;;39.55;18.15;;;;;;;-3.49;100.00;99338.88;4207811;28;20397;-72
2023/01/21 04:16:20;;;;;;;40.45;18.15;;;;;;;-3.51;100.00;99335.63;4205358;28;20057;-72
2023/01/21 04:18:21;;;;;;;37.40;18.23;;;;;;;-3.46;100.00;99341.88;4203313;28;20093;-72
2023/01/21 04:20:21;;;;;;;37.10;17.98;;;;;;;-3.48;100.00;99346.72;4202959;28;20035;-72
2023/01/21 04:22:21;;;;;;;42.53;18.73;;;;;;;-3.43;100.00;99345.94;4217775;28;20118;-72
2023/01/21 04:24:22;;;;;;;34.95;16.77;;;;;;;-3.47;100.00;99345.66;4212499;28;20562;-72
2023/01/21 04:26:22;;;;;;;40.47;18.40;;;;;;;-3.47;100.00;99352.97;4209529;28;20067;-72
2023/01/21 04:28:22;;;;;;;38.63;17.27;;;;;;;-3.49;100.00;99352.41;4204743;28;20189;-72
2023/01/21 04:30:23;;;;;;;39.92;17.27;;;;;;;-3.47;100.00;99355.66;4215469;28;20496;-72
2023/01/21 04:32:23;;;;;;;34.20;17.23;;;;;;;-3.49;100.00;99357.81;4218227;28;20127;-72
2023/01/21 04:34:23;;;;;;;43.83;17.55;;;;;;;-3.48;100.00;99351.31;4209190;28;20046;-72
2023/01/21 04:36:24;;;;;;;45.97;18.45;;;;;;;-3.48;100.00;99354.81;4203080;28;20354;-72
2023/01/21 04:38:24;;;;;;;53.28;19.33;;;;;;;-3.50;100.00;99346.16;4208099;28;20041;-72
2023/01/21 04:40:25;;;;;;;38.85;19.15;;;;;;;-3.47;100.00;99351.06;4206158;28;20079;-72
2023/01/21 04:42:25;;;;;;;45.15;20.23;;;;;;;-3.46;100.00;99346.47;4209501;28;20114;-72
2023/01/21 04:44:25;;;;;;;42.90;18.13;;;;;;;-3.41;100.00;99350.00;4210910;28;20047;-72
2023/01/21 04:46:25;;;;;;;45.28;18.77;;;;;;;-3.37;100.00;99347.59;4218227;28;20320;-72
2023/01/21 04:48:26;;;;;;;37.90;17.70;;;;;;;-3.40;100.00;99350.81;4208454;28;20348;-72
2023/01/21 04:50:26;;;;;;;39.55;17.70;;;;;;;-3.43;100.00;99352.16;4217331;28;20435;-72
2023/01/21 04:52:26;;;;;;;42.72;18.40;;;;;;;-3.40;100.00;99361.63;4206954;28;20051;-72
2023/01/21 04:54:27;;;;;;;36.85;18.02;;;;;;;-3.40;100.00;99350.81;4202766;28;21054;-72
2023/01/21 04:56:27;;;;;;;39.28;19.27;;;;;;;-3.44;100.00;99353.22;4202440;28;20076;-72
2023/01/21 04:58:27;;;;;;;46.92;19.60;;;;;;;-3.44;100.00;99358.66;4202737;28;20387;-72
2023/01/21 05:00:28;;;;;;;43.28;19.48;;;;;;;-3.37;100.00;99360.31;4211525;28;20170;-72
2023/01/21 05:02:28;;;;;;;39.90;18.35;;;;;;;-3.40;100.00;99356.22;4217743;28;20090;-73
2023/01/21 05:04:29;;;;;;;37.05;17.45;;;;;;;-3.42;100.00;99361.91;4209042;28;20126;-72
2023/01/21 05:06:29;;;;;;;46.58;19.95;;;;;;;-3.42;100.00;99366.50;4218422;28;20114;-72
2023/01/21 05:08:29;;;;;;;41.00;17.98;;;;;;;-3.48;100.00;99365.66;4217453;28;20550;-72
2023/01/21 05:10:29;;;;;;;41.50;19.20;;;;;;;-3.47;100.00;99375.41;4217878;28;20059;-72
2023/01/21 05:12:30;;;;;;;46.33;19.10;;;;;;;-3.44;100.00;99365.94;4217083;28;20173;-72
2023/01/21 05:14:30;;;;;;;43.42;18.27;;;;;;;-3.46;100.00;99368.13;4216629;28;20046;-72
2023/01/21 05:16:30;;;;;;;45.63;19.20;;;;;;;-3.43;100.00;99368.38;4205133;28;20048;-72
2023/01/21 05:18:31;;;;;;;40.65;17.20;;;;;;;-3.47;100.00;99358.38;4215563;28;20113;-72
2023/01/21 05:20:31;;;;;;;43.97;17.98;;;;;;;-3.42;100.00;99370.00;4218375;28;20722;-72
2023/01/21 05:22:31;;;;;;;41.97;18.35;;;;;;;-3.40;100.00;99372.44;4210252;28;20109;-72
2023/01/21 05:24:32;;;;;;;37.28;18.25;;;;;;;-3.44;100.00;99377.59;4202668;28;20050;-73
2023/01/21 05:26:32;;;;;;;35.72;17.38;;;;;;;-3.44;100.00;99376.78;4214076;28;20046;-72
2023/01/21 05:28:32;;;;;;;37.28;16.73;;;;;;;-3.42;100.00;99367.31;4203358;28;20499;-72
2023/01/21 05:30:32;;;;;;;36.50;17.85;;;;;;;-3.33;100.00;99378.44;4202564;28;20427;-72
2023/01/21 05:32:35;;;;;;;37.25;17.50;;;;;;;-3.38;100.00;99372.22;4201964;28;20108;-72
2023/01/21 05:34:35;;;;;;;;;;;;;;;-3.33;100.00;99391.16;4203285;28;20040;-72
2023/01/21 05:36:36;;;;;;;36.75;16.55;;;;;;;-3.34;100.00;99378.69;4202015;28;19912;-72
2023/01/21 05:38:37;;;;;;;39.17;15.43;;;;;;;-3.38;100.00;99378.44;4217212;28;20040;-72
2023/01/21 05:40:37;;;;;;;34.70;15.43;;;;;;;-3.38;100.00;99386.56;4209633;28;20331;-72
2023/01/21 05:42:37;;;;;;;33.42;13.93;;;;;;;-3.41;100.00;99381.66;4201707;28;20092;-72
2023/01/21 05:44:37;;;;;;;34.95;15.02;;;;;;;-3.38;100.00;99385.75;4202800;28;20051;-72
2023/01/21 05:46:38;;;;;;;30.85;15.38;;;;;;;-3.37;100.00;99392.78;4215053;28;20279;-72
2023/01/21 05:48:38;;;;;;;33.03;14.68;;;;;;;-3.41;100.00;99387.06;4217131;28;20127;-72
2023/01/21 05:50:38;;;;;;;34.97;16.15;;;;;;;-3.38;100.00;99393.84;4213670;28;20051;-72
2023/01/21 05:52:39;;;;;;;34.50;15.07;;;;;;;-3.40;100.00;99396.81;4218063;28;20062;-72
2023/01/21 05:54:39;;;;;;;41.38;17.38;;;;;;;-3.44;100.00;99387.59;4205299;28;20040;-72
2023/01/21 05:56:40;;;;;;;36.50;16.20;;;;;;;-3.44;100.00;99391.13;4211660;28;20046;-72
2023/01/21 05:58:40;;;;;;;37.25;16.60;;;;;;;-3.40;100.00;99397.63;4208378;28;20045;-72
2023/01/21 06:00:40;;;;;;;39.58;17.67;;;;;;;-3.38;100.00;99396.56;4205640;28;20044;-72
2023/01/21 06:02:41;;;;;;;41.10;18.30;;;;;;;-3.38;100.00;99394.66;4204543;28;20090;-72
2023/01/21 06:04:41;;;;;;;42.50;16.55;;;;;;;-3.36;100.00;99403.31;4211104;28;20047;-72
2023/01/21 06:06:41;;;;;;;35.53;15.75;;;;;;;-3.36;100.00;99397.09;4205957;28;20466;-72
2023/01/21 06:08:42;;;;;;;39.30;16.25;;;;;;;-3.37;100.00;99411.72;4204872;28;20568;-72
2023/01/21 06:10:42;;;;;;;36.63;17.13;;;;;;;-3.41;100.00;99401.41;4204876;28;20200;-72
2023/01/21 06:12:43;;;;;;;42.22;17.90;;;;;;;-3.40;100.00;99403.03;4220547;28;20047;-72
2023/01/21 06:14:43;;;;;;;36.35;16.42;;;;;;;-3.41;100.00;99401.41;4220827;28;20135;-72
2023/01/21 06:16:43;;;;;;;39.75;17.10;;;;;;;-3.39;100.00;99411.97;4212146;28;20084;-72
2023/01/21 06:18:43;;;;;;;41.95;16.88;;;;;;;-3.32;100.00;99411.72;4209196;28;20496;-72
2023/01/21 06:20:44;;;;;;;38.53;15.30;;;;;;;-3.35;100.00;99406.84;4206383;28;20078;-73
2023/01/21 06:22:44;;;;;;;34.67;15.52;;;;;;;-3.38;100.00;99400.06;4204079;28;20040;-73
2023/01/21 06:24:45;;;;;;;33.25;14.32;;;;;;;-3.38;100.00;99419.03;4215587;28;20040;-73
2023/01/21 06:26:45;;;;;;;38.97;17.02;;;;;;;-3.38;100.00;99405.50;4214053;28;20051;-72
2023/01/21 06:28:45;;;;;;;33.10;15.05;;;;;;;-3.41;100.00;99409.50;4220485;28;20040;-73
2023/01/21 06:30:46;;;;;;;30.65;14.75;;;;;;;-3.39;100.00;99425.50;4210100;28;20313;-73
2023/01/21 06:32:46;;;;;;;31.75;14.80;;;;;;;-3.42;100.00;99416.00;4198781;28;20055;-73
2023/01/21 06:34:46;;;;;;;30.85;13.18;;;;;;;-3.40;100.00;99426.56;4147702;28;20048;-72
2023/01/21 06:36:47;;;;;;;31.25;13.05;;;;;;;-3.35;100.00;99421.19;4160895;28;20047;-72
2023/01/21 06:38:47;;;;;;;26.20;11.95;;;;;;;-3.38;100.00;99429.03;4198956;28;20043;-72
2023/01/21 06:40:47;;;;;;;19.80;10.02;;;;;;;-3.33;100.00;99442.56;4199828;28;20395;-72
2023/01/21 06:42:48;;;;;;;28.88;10.80;;;;;;;-3.37;100.00;99436.88;4199146;28;20476;-72
2023/01/21 06:44:48;;;;;;;30.50;11.73;;;;;;;-3.43;100.00;99437.94;4200235;28;20696;-72
2023/01/21 06:46:49;;;;;;;31.48;12.73;;;;;;;-3.43;100.00;99429.81;4201981;28;20068;-72
2023/01/21 06:48:50;;;;;;;29.90;13.18;;;;;;;-3.47;100.00;99440.34;4200166;28;20105;-72
2023/01/21 06:50:51;;;;;;;25.53;11.90;;;;;;;-3.46;100.00;99438.47;4202610;28;20040;-72
2023/01/21 06:52:51;;;;;;;31.10;11.45;;;;;;;-3.52;100.00;99453.03;4206621;28;20411;-73
2023/01/21 06:54:51;;;;;;;30.55;11.75;;;;;;;-3.52;100.00;99448.44;4203262;28;20547;-72
2023/01/21 06:56:52;;;;;;;31.83;13.30;;;;;;;-3.50;100.00;99451.69;4200442;28;20460;-72
2023/01/21 06:58:52;;;;;;;23.42;12.25;;;;;;;-3.53;100.00;99456.81;4200476;28;20488;-72
2023/01/21 07:00:55;;;;;;;30.73;14.10;;;;;;;-3.55;100.00;99450.84;4209258;28;20075;-72
2023/01/21 07:02:57;;;;;;;30.60;14.10;;;;;;;-3.57;100.00;99456.50;4206987;28;20050;-73
2023/01/21 07:04:57;;;;;;;33.70;12.15;;;;;;;-3.56;100.00;99450.03;4200200;28;20500;-72
2023/01/21 07:06:58;;;;;;;33.00;13.40;;;;;;;-3.58;100.00;99452.19;4203265;28;20048;-73
2023/01/21 07:08:58;;;;;;;35.15;13.48;;;;;;;-3.58;100.00;99471.13;4210128;28;20389;-72
2023/01/21 07:10:58;;;;;;;35.65;14.27;;;;;;;-3.58;100.00;99476.53;4201633;28;20051;-73
2023/01/21 07:12:59;;;;;;;28.17;13.23;;;;;;;-3.60;100.00;99469.75;4200735;28;20068;-72
2023/01/21 07:14:59;;;;;;;29.70;13.65;;;;;;;-3.58;100.00;99462.19;4200590;28;20555;-73
2023/01/21 07:16:59;;;;;;;31.63;12.65;;;;;;;-3.56;100.00;99478.97;4198582;28;20059;-72
2023/01/21 07:19:00;;;;;;;34.53;14.48;;;;;;;-3.56;100.00;99478.97;4202880;28;20532;-72
2023/01/21 07:21:00;;;;;;;33.15;13.35;;;;;;;-3.57;100.00;99478.16;4202135;28;20442;-72
2023/01/21 07:23:00;;;;;;;33.53;13.95;;;;;;;-3.58;100.00;99481.13;4203337;28;20097;-73
2023/01/21 07:25:01;;;;;;;30.23;12.95;;;;;;;-3.57;100.00;99486.25;4202954;28;20047;-73
2023/01/21 07:27:01;;;;;;;28.30;13.02;;;;;;;-3.54;100.00;99488.47;4199747;28;20130;-72
2023/01/21 07:29:01;;;;;;;27.95;13.15;;;;;;;-3.55;100.00;99494.16;4201986;28;20540;-72
2023/01/21 07:31:02;;;;;;;24.80;12.60;;;;;;;-3.55;100.00;99491.44;4203576;28;20055;-73
2023/01/21 07:33:09;;;;;;;25.60;11.98;;;;;;;-3.55;100.00;99503.06;4205689;28;20475;-72
2023/01/21 07:35:10;;;;;;;29.77;13.45;;;;;;;-3.60;100.00;99502.22;4205695;28;20027;-72
2023/01/21 07:37:10;;;;;;;29.38;14.40;;;;;;;-3.62;100.00;99505.19;4201513;28;20044;-72
2023/01/21 07:39:10;;;;;;;32.38;14.70;;;;;;;-3.60;100.00;99497.63;4203074;28;20082;-72
2023/01/21 07:41:11;;;;;;;31.98;14.35;;;;;;;-3.51;100.00;99496.06;4199596;28;20070;-72
2023/01/21 07:43:11;;;;;;;31.10;13.57;;;;;;;-3.56;100.00;99509.53;4210125;28;20211;-72
2023/01/21 07:45:11;;;;;;;28.25;12.13;;;;;;;-3.53;100.00;99509.03;4202838;28;20279;-72
2023/01/21 07:47:12;;;;;;;30.13;12.63;;;;;;;-3.59;100.00;99512.78;4205128;28;20305;-72
2023/01/21 07:49:16;;;;;;;24.02;12.38;;;;;;;-3.61;100.00;99503.28;4212342;28;20054;-74
2023/01/21 07:51:20;;;;;;;26.77;12.63;;;;;;;-3.64;100.00;99520.03;4199449;28;20080;-72
2023/01/21 07:53:20;;;;;;;34.92;12.55;;;;;;;-3.69;100.00;99523.53;4142738;28;20100;-72
2023/01/21 07:55:21;;;;;;;35.20;13.32;;;;;;;-3.73;100.00;99519.69;4208107;28;20043;-72
2023/01/21 07:57:22;;;;;;;38.17;14.20;;;;;;;-3.73;100.00;99525.09;4207521;28;20473;-72
2023/01/21 07:59:22;;;;;;;30.95;12.80;;;;;;;-3.75;100.00;99524.56;4205602;28;20349;-72
2023/01/21 08:01:26;;;;;;;34.20;13.50;;;;;;;-3.73;100.00;99527.81;4212239;28;20478;-72
2023/01/21 08:03:27;;;;;;;32.90;13.20;;;;;;;-3.71;100.00;99525.69;4205072;28;20574;-72
2023/01/21 08:05:27;;;;;;;35.97;12.50;;;;;;;-3.78;100.00;99533.19;4204156;28;20081;-72
2023/01/21 08:07:28;;;;;;;31.17;13.02;;;;;;;-3.82;100.00;99532.06;4211302;28;20058;-73
2023/01/21 08:09:28;;;;;;;31.17;11.70;;;;;;;-3.85;100.00;99525.28;4217692;28;20943;-74
2023/01/21 08:11:28;;;;;;;35.40;12.02;;;;;;;-3.75;100.00;99529.97;4205564;28;20084;-72
2023/01/21 08:13:28;;;;;;;36.55;13.93;;;;;;;-3.82;100.00;99530.16;4216032;28;20043;-72
2023/01/21 08:15:29;;;;;;;39.58;13.35;;;;;;;-3.76;100.00;99531.03;4211838;28;20567;-72
2023/01/21 08:17:29;;;;;;;40.33;14.82;;;;;;;-3.82;100.00;99530.16;4204418;28;20214;-73
2023/01/21 08:19:29;;;;;;;41.95;14.32;;;;;;;-3.83;100.00;99536.66;4209694;28;20445;-72
2023/01/21 08:21:30;;;;;;;42.85;15.15;;;;;;;-3.83;100.00;99535.84;4209449;28;20047;-74
2023/01/21 08:23:30;;;;;;;37.40;14.07;;;;;;;-3.83;100.00;99541.25;4206372;28;20062;-73
2023/01/21 08:25:31;;;;;;;42.03;15.02;;;;;;;-3.83;100.00;99541.25;4219345;28;20061;-74
2023/01/21 08:27:32;;;;;;;39.13;14.75;;;;;;;-3.89;100.00;99532.28;4203726;28;20044;-74
2023/01/21 08:29:32;;;;;;;42.38;14.68;;;;;;;-3.90;100.00;99535.25;4203139;28;20051;-73
2023/01/21 08:31:32;;;;;;;37.85;14.38;;;;;;;-3.89;100.00;99540.38;4209223;28;20438;-73
2023/01/21 08:33:33;;;;;;;38.53;16.13;;;;;;;-3.96;100.00;99551.44;4217558;28;20035;-73
2023/01/21 08:35:33;;;;;;;37.35;14.57;;;;;;;-3.90;100.00;99554.16;4216949;28;20043;-73
2023/01/21 08:37:34;;;;;;;39.40;15.88;;;;;;;-3.94;100.00;99544.94;4217199;28;20043;-73
2023/01/21 08:39:34;;;;;;;38.92;14.65;;;;;;;-3.97;100.00;99552.50;4219054;28;20039;-73
2023/01/21 08:41:34;;;;;;;28.38;11.70;;;;;;;-3.96;100.00;99551.44;4217749;28;20494;-73
2023/01/21 08:43:35;;;;;;;29.42;11.63;;;;;;;-3.93;100.00;99557.41;4210098;28;20319;-73
2023/01/21 08:45:35;;;;;;;33.65;11.23;;;;;;;-3.88;100.00;99550.16;4205532;28;20350;-73
2023/01/21 08:47:36;;;;;;;33.65;11.43;;;;;;;-3.91;100.00;99558.75;4209376;28;20044;-73
2023/01/21 08:49:36;;;;;;;35.00;10.93;;;;;;;-3.87;100.00;99561.78;4206984;28;20391;-73
2023/01/21 08:51:36;;;;;;;33.60;10.45;;;;;;;-3.92;100.00;99553.63;4204390;28;20451;-73
2023/01/21 08:53:36;;;;;;;20.98;8.65;;;;;;;-3.91;100.00;99555.25;4202211;28;20577;-73
2023/01/21 08:55:37;;;;;;;20.05;7.90;;;;;;;-3.86;100.00;99566.13;4209602;28;20078;-73
2023/01/21 08:57:37;;;;;;;20.52;7.20;;;;;;;-3.86;100.00;99560.72;4203752;28;20318;-73
2023/01/21 08:59:38;;;;;;;16.70;7.03;;;;;;;-3.85;100.00;99557.75;4205921;28;20040;-73
2023/01/21 09:01:41;;;;;;;16.95;6.78;;;;;;;-3.85;100.00;99552.34;4208863;28;20039;-73
2023/01/21 09:03:42;;;;;;;17.23;7.65;;;;;;;-3.85;100.00;99551.53;4206800;28;20039;-73
2023/01/21 09:05:42;;;;;;;15.95;6.50;;;;;;;-3.76;100.00;99549.97;4204683;28;20447;-73
2023/01/21 09:07:43;;;;;;;17.65;6.93;;;;;;;-3.74;100.00;99547.81;4202961;28;20097;-73
2023/01/21 09:09:43;;;;;;;16.55;6.57;;;;;;;-3.75;100.00;99541.59;4207680;28;20040;-73
2023/01/21 09:11:43;;;;;;;16.58;7.47;;;;;;;-3.70;100.00;99540.81;4209425;28;20087;-74
2023/01/21 09:13:44;;;;;;;16.58;6.32;;;;;;;-3.75;100.00;99551.59;4208560;28;20544;-73
2023/01/21 09:15:44;;;;;;;14.77;6.57;;;;;;;-3.70;100.00;99557.88;4209168;28;20472;-74
2023/01/21 09:17:45;;;;;;;13.63;6.55;;;;;;;-3.70;100.00;99551.66;4216249;28;20128;-74
2023/01/21 09:19:45;;;;;;;15.77;6.22;;;;;;;-3.65;100.00;99538.16;4207145;28;20059;-73
2023/01/21 09:21:46;;;;;;;16.33;6.60;;;;;;;-3.62;100.00;99555.78;4210266;28;20050;-74